ADDS METAR Data INFO
IDs: Format: Raw Decoded Include TAF

Data at: 0035 UTC 23 Feb 2018

KLNC 230015Z AUTO 31006KT 7SM OVC005 03/03 A3025 RMK AO2 T00310025
KLNC 222355Z AUTO 32007KT 10SM OVC005 03/02 A3024 RMK AO2 LTG DSNT E 60001 T00310024 10041 20031
KLNC 222335Z AUTO 32009KT 10SM BKN005 OVC012 03/03 A3024 RMK AO2 T00320025
KLNC 222315Z AUTO 31009KT 10SM OVC005 03/03 A3023 RMK AO2 LTG DSNT E T00320025
KLNC 222255Z AUTO 32008KT 7SM OVC005 04/03 A3023 RMK AO2 T00350028
KLNC 222235Z AUTO 31008KT 10SM OVC007 04/03 A3023 RMK AO2 LTG DSNT SE T00370030
KLNC 222215Z AUTO 31009KT 10SM OVC005 04/03 A3023 RMK AO2 LTG DSNT N T00370030
KLNC 222155Z AUTO 32008KT 7SM DZ OVC005 04/03 A3022 RMK AO2 P0001 T00370031
KLNC 222135Z AUTO 31007KT 5SM RA OVC005 04/03 A3022 RMK AO2 P0001 T00370031
KLNC 222115Z AUTO 30006KT 3SM -RA OVC005 04/03 A3022 RMK AO2 LTG DSNT NE P0001 T00350030
KLNC 222055Z AUTO 31009KT 1 3/4SM BR OVC005 04/03 A3022 RMK AO2 T00350030
KLNC 222035Z AUTO 29007KT 1 1/4SM BR OVC005 04/03 A3022 RMK AO2 LTG DSNT NE T00380033
KLNC 222015Z AUTO 30007KT 1 3/4SM BR OVC005 04/04 A3024 RMK AO2 LTG DSNT N T00400035
KLNC 221955Z AUTO 29005KT 1 1/2SM BR OVC005 04/04 A3024 RMK AO2 LTG DSNT NE T00400035
KLNC 221935Z AUTO 31005KT 1 1/2SM BR OVC005 04/03 A3024 RMK AO2 LTG DSNT NE T00380033
KLNC 221915Z AUTO 29006KT 1 1/4SM BR OVC005 04/04 A3025 RMK AO2 LTG DSNT NW T00400035
KLNC 221855Z AUTO 32006KT 2SM BR OVC005 04/03 A3025 RMK AO2 LTG DSNT NE T00390034
KLNC 221835Z AUTO 32005KT 2SM BR OVC005 04/03 A3027 RMK AO2 LTG DSNT NE T00370032
KLNC 221815Z AUTO 31004KT 1 1/2SM BR OVC005 04/03 A3027 RMK AO2 LTG DSNT NE AND E T00350030
KLNC 221755Z AUTO 00000KT 1 1/4SM -RA OVC005 03/03 A3027 RMK AO2 LTG DSNT NE AND E 60133 T00320027 10033 20012
KLNC 221735Z AUTO 28003KT 1 1/2SM -RA OVC005 03/03 A3029 RMK AO2 LTG DSNT NE T00300025
KLNC 221715Z AUTO 00000KT 2 1/2SM BR OVC005 03/02 A3029 RMK AO2 LTG DSNT NE T00280023
KLNC 221655Z AUTO 00000KT 4SM RA BKN005 BKN017 03/02 A3029 RMK AO2 LTG DSNT NW THRU NE P0009 T00260022
KLNC 221635Z AUTO 00000KT 3SM -VCTSRA 03/02 A3027 RMK AO2 SKY OBSCURED LTG DSNT NW THRU NE P0009 T00250020
KLNC 221615Z AUTO 00000KT 4SM VCTSRA SCT006 02/02 A3033 RMK AO2 LTG DSNT NW THRU NE P0007 T00210016
KLNC 221555Z AUTO 28004KT 4SM -TSRA BKN005 SCT010 BKN013 02/02 A3029 RMK AO2 LTG DSNT ALQS P0054 T00190015
KLNC 221535Z AUTO 02004KT 1/4SM TSSN OVC005 02/01 A3027 RMK AO2 LTG DSNT ALQS P0051 T00180014
KLNC 221515Z AUTO 03005KT 1/2SM -TSSN BKN005 OVC012 02/01 A3027 RMK AO2 LTG DSNT ALQS P0018 T00170013
KLNC 221455Z AUTO 31011KT 7SM TSRA SCT005 BKN014 OVC070 02/01 A3031 RMK AO2 LTG DSNT ALQS P0069 60069 T00150011
KLNC 221435Z AUTO 02010KT 3/4SM TSSN OVC003 02/01 A3026 RMK AO2 LTG DSNT ALQS P0066 T00150011
KLNC 221415Z AUTO 33007KT 1 3/4SM +TSRA OVC003 02/01 A3029 RMK AO2 LTG DSNT ALQS P0011 T00160012
KLNC 221355Z AUTO 35010KT 1 1/4SM -VCTSRA OVC003 02/01 A3026 RMK AO2 LTG DSNT SE THRU W T00150011
KLNC 221335Z AUTO 36009KT 2SM VCTS BR OVC003 02/01 A3029 RMK AO2 LTG DSNT SE AND SW T00150011
KLNC 221315Z AUTO 35007KT 2SM BR OVC003 02/01 A3029 RMK AO2 LTG DSNT SW T00150010
KLNC 221255Z AUTO 34006KT 2SM BR OVC003 02/01 A3029 RMK AO2 T00150010
KLNC 221235Z AUTO 33009KT 2 1/2SM BR OVC003 01/01 A3028 RMK AO2 LTG DSNT SW T00130010
KLNC 221215Z AUTO 35009KT 4SM BR OVC003 01/01 A3028 RMK AO2 LTG DSNT E T00130010
KLNC 221155Z AUTO 35011KT 2SM BR OVC003 02/01 A3027 RMK AO2 70064 T00150011 10018 20013
KLNC 221135Z AUTO 34011KT 1 3/4SM BR OVC003 02/01 A3028 RMK AO2 T00150011
KLNC 221115Z AUTO 34006KT 2SM BR OVC005 02/01 A3030 RMK AO2 T00150011
KLNC 221055Z AUTO 34010KT 3SM BR OVC003 02/01 A3029 RMK AO2 T00150011
KLNC 221035Z AUTO 34008KT 2SM BR OVC003 02/01 A3029 RMK AO2 T00150012
KLNC 221015Z AUTO 34006KT 2SM BR OVC003 02/01 A3030 RMK AO2 LTG DSNT SE T00150011
KLNC 220955Z AUTO 34008KT 1 3/4SM BR OVC003 02/01 A3029 RMK AO2 T00150011
KLNC 220935Z AUTO 32009KT 1 1/2SM BR OVC003 01/01 A3029 RMK AO2 T00130010
KLNC 220915Z AUTO 33008KT 1 1/4SM BR OVC003 01/01 A3029 RMK AO2 T00130010
KLNC 220855Z AUTO 32011KT 1 1/4SM BR OVC003 02/01 A3030 RMK AO2 T00150011
KLNC 220835Z AUTO 33008KT 1 1/2SM BR OVC003 02/01 A3030 RMK AO2 T00160013
KLNC 220815Z AUTO 34010KT 1 3/4SM BR OVC003 02/02 A3030 RMK AO2 T00170015
KLNC 220755Z AUTO 33007KT 2SM BR OVC003 02/01 A3030 RMK AO2 T00170013
KLNC 220735Z AUTO 34011KT 1SM BR OVC003 02/01 A3029 RMK AO2 T00160012
KLNC 220715Z AUTO 34011KT 4SM BR OVC003 02/01 A3029 RMK AO2 LTG DSNT E T00170013
KLNC 220655Z AUTO 33009KT 3SM BR OVC003 02/01 A3030 RMK AO2 LTG DSNT SE T00180014
KLNC 220635Z AUTO 32008KT 4SM BR OVC003 02/01 A3030 RMK AO2 T00170013
KLNC 220615Z AUTO 33008KT 2 1/2SM BR OVC003 02/01 A3030 RMK AO2 T00170012
KLNC 220555Z AUTO 34010KT 3SM BR OVC003 02/01 A3030 RMK AO2 60004 T00170012 10035 20016 400450010
KLNC 220535Z AUTO 33012G17KT 2 1/2SM BR OVC003 02/01 A3031 RMK AO2 T00160011
KLNC 220515Z AUTO 33012KT 2SM BR OVC003 02/01 A3031 RMK AO2 T00160011
KLNC 220455Z AUTO 33012KT 2 1/2SM BR OVC005 02/01 A3031 RMK AO2 T00180013
KLNC 220435Z AUTO 33011G19KT 2 1/2SM BR OVC005 02/01 A3031 RMK AO2 T00190012
KLNC 220415Z AUTO 32013KT 3SM BR OVC005 02/01 A3032 RMK AO2 T00200013
KLNC 220355Z AUTO 32010KT 3SM BR OVC005 02/01 A3031 RMK AO2 LTG DSNT SE T00200012
KLNC 220035Z AUTO 33011KT 5SM -RA OVC005 03/03 A3020 RMK AO2 LTG DSNT SE AND S P0004 T00310026
KLNC 220015Z AUTO 35010KT 7SM RA OVC005 03/03 A3022 RMK AO2 LTG DSNT E THRU S P0002 T00330027
KLNC 212355Z AUTO 06012KT 7SM -RA BKN005 BKN017 OVC029 03/03 A3019 RMK AO2 LTG DSNT E AND S P0010 60050 T00300025 10030 20010
KLNC 212335Z AUTO 08014KT 5SM -RA SCT005 BKN026 OVC037 03/02 A3020 RMK AO2 LTG DSNT S P0008 T00270021
KLNC 212315Z AUTO 03005G08KT 5SM RA BKN004 BKN018 OVC046 03/02 A3022 RMK AO2 LTG DSNT SE AND S P0003 T00250018
KLNC 212255Z AUTO 03005KT 10SM RA OVC004 02/02 A3023 RMK AO2 LTG DSNT E AND SE P0003 T00220016
KLNC 212235Z AUTO 01005KT 10SM RA OVC004 02/02 A3025 RMK AO2 LTG DSNT SE THRU SW P0002 T00200015
KLNC 212215Z AUTO 03007KT 4SM -RA BKN004 BKN015 OVC025 02/01 A3025 RMK AO2 LTG DSNT E THRU SW P0002 T00190012
KLNC 212155Z AUTO 03007G14KT 4SM -RA SCT004 BKN016 OVC040 02/01 A3025 RMK AO2 LTG DSNT S P0027 T00160010
KLNC 212135Z AUTO 35010KT 2 1/2SM -VCTSSN SCT007 BKN013 OVC026 01/01 A3027 RMK AO2 LTG DSNT S THRU NW P0022 T00140007
KLNC 212115Z AUTO 33013G17KT 3/4SM -RA BKN007 OVC011 01/00 A3029 RMK AO2 LTG DSNT SW AND W P0011 T00110003
KLNC 212055Z AUTO 34016G23KT 10SM -VCTSRA BKN009 SCT014 OVC021 01/00 A3028 RMK AO2 LTG DSNT ALQS P0001 60010 T00110001
KLNC 212035Z AUTO 34016G26KT 4SM -RA BKN009 BKN014 OVC021 01/00 A3027 RMK AO2 LTG DSNT SW AND W P0001 T00120002
KLNC 212015Z AUTO 34016G28KT 5SM RA BKN009 OVC014 01/00 A3027 RMK AO2 LTG DSNT SE THRU W T00140004
KLNC 211955Z AUTO 32017G22KT 3SM +DZ OVC009 02/01 A3030 RMK AO2 LTG DSNT SW AND W P0003 T00160006
KLNC 211935Z AUTO 32015G21KT 3SM -RA OVC009 02/01 A3030 RMK AO2 LTG DSNT SE THRU W P0003 T00200011
KLNC 211915Z AUTO 32017G25KT 4SM RA OVC009 02/01 A3027 RMK AO2 LTG DSNT SE AND NW T00180009
KLNC 211855Z AUTO 33018G22KT 4SM RA OVC009 02/01 A3026 RMK AO2 LTG DSNT W AND NW P0006 T00200010
KLNC 211835Z AUTO 33017G22KT 2SM -RA OVC009 02/01 A3027 RMK AO2 LTG DSNT SW P0005 T00220011
KLNC 211815Z AUTO 32011KT 10SM RA OVC007 03/02 A3029 RMK AO2 LTG DSNT W T00270015
KLNC 211755Z AUTO 31013KT 10SM OVC007 03/01 A3031 RMK AO2 LTG DSNT W 60010 T00280014 10028 20012
KLNC 211735Z AUTO 36008KT 10SM OVC009 03/01 A3025 RMK AO2 LTG DSNT SW AND W T00260012
KLNC 211715Z AUTO 36010KT 10SM OVC009 03/01 A3027 RMK AO2 LTG DSNT SW T00250010
KLNC 211655Z AUTO 01012G15KT 10SM OVC009 02/01 A3025 RMK AO2 LTG DSNT SW AND W T00230008
KLNC 211635Z AUTO 01011G15KT 10SM OVC009 02/01 A3026 RMK AO2 LTG DSNT E AND SW T00210006
KLNC 211615Z AUTO 36010KT 10SM OVC009 02/01 A3027 RMK AO2 LTG DSNT SE AND SW T00210007
KLNC 211555Z AUTO 36010KT 10SM OVC009 02/01 A3028 RMK AO2 T00210007
KLNC 211535Z AUTO 36011G16KT 10SM OVC009 02/01 A3027 RMK AO2 LTG DSNT SE T00200005
KLNC 211515Z AUTO 03012G19KT 10SM BKN009 BKN015 OVC075 02/01 A3026 RMK AO2 LTG DSNT S T00170006
KLNC 211455Z AUTO 02012G16KT 10SM BKN011 BKN015 OVC075 02/01 A3026 RMK AO2 LTG DSNT S 60010 T00150005
KLNC 211435Z AUTO 02009KT 10SM BKN011 OVC017 02/00 A3027 RMK AO2 LTG DSNT S T00150004
KLNC 211415Z AUTO 35013KT 10SM SCT007 BKN011 OVC085 02/00 A3030 RMK AO2 T00150004
KLNC 211355Z AUTO 36012G19KT 10SM DZ SCT009 BKN044 OVC085 01/00 A3028 RMK AO2 P0002 T00130003
KLNC 211335Z AUTO 35016G22KT 10SM -RA SCT009 BKN020 OVC085 01/00 A3028 RMK AO2 P0001 T00120001
KLNC 211315Z AUTO 35015G20KT 5SM -RA SCT009 BKN018 OVC037 02/01 A3027 RMK AO2 LTG DSNT W P0001 T00150007
KLNC 211255Z AUTO 34016G25KT 3SM -SN SCT009 BKN025 OVC070 02/01 A3025 RMK AO2 P0008 T00150006